createdAt,value
2022-08-26T00:01:46.531Z,36.78
2022-08-26T00:04:13.577Z,39.70
2022-08-26T00:06:42.532Z,34.20
2022-08-26T00:09:16.004Z,37.28
2022-08-26T00:11:44.733Z,36.33
2022-08-26T00:14:14.043Z,36.90
2022-08-26T00:16:48.016Z,32.47
2022-08-26T00:19:17.931Z,45.95
2022-08-26T00:21:45.992Z,36.08
2022-08-26T00:24:13.387Z,38.83
2022-08-26T00:26:41.421Z,42.20
2022-08-26T00:29:08.681Z,40.90
2022-08-26T00:31:36.494Z,39.20
2022-08-26T00:34:04.135Z,38.20
2022-08-26T00:36:32.044Z,36.03
2022-08-26T00:38:59.195Z,35.85
2022-08-26T00:41:26.078Z,42.37
2022-08-26T00:43:52.952Z,45.50
2022-08-26T00:46:29.287Z,38.63
2022-08-26T00:49:03.434Z,40.05
2022-08-26T00:51:30.292Z,39.42
2022-08-26T00:54:05.529Z,37.83
2022-08-26T00:56:38.751Z,35.67
2022-08-26T00:59:07.053Z,36.67
2022-08-26T01:01:34.235Z,35.95
2022-08-26T01:04:01.157Z,33.90
2022-08-26T01:06:28.665Z,41.33
2022-08-26T01:08:56.214Z,38.28
2022-08-26T01:11:24.264Z,35.90
2022-08-26T01:13:57.708Z,37.53
2022-08-26T01:16:27.319Z,37.40
2022-08-26T01:18:59.551Z,43.40
2022-08-26T01:21:33.833Z,38.88
2022-08-26T01:24:00.932Z,40.33
2022-08-26T01:26:30.819Z,39.08
2022-08-26T01:29:01.146Z,39.28
2022-08-26T01:31:30.106Z,38.70
2022-08-26T01:34:18.789Z,41.47
2022-08-26T01:36:51.071Z,36.58
2022-08-26T01:39:19.295Z,46.20
2022-08-26T01:41:46.325Z,41.50
2022-08-26T01:44:18.796Z,41.83
2022-08-26T01:46:46.512Z,33.92
2022-08-26T01:49:14.530Z,41.22
2022-08-26T01:51:44.550Z,38.10
2022-08-26T01:54:11.957Z,37.47
2022-08-26T01:56:40.717Z,32.53
2022-08-26T01:59:10.640Z,38.85
2022-08-26T02:01:37.734Z,39.78
2022-08-26T02:04:27.560Z,35.95
2022-08-26T02:06:54.617Z,37.88
2022-08-26T02:09:21.479Z,42.90
2022-08-26T02:11:48.610Z,38.53
2022-08-26T02:14:29.811Z,33.55
2022-08-26T02:16:56.708Z,42.03
2022-08-26T02:19:27.449Z,39.40
2022-08-26T02:21:54.329Z,41.50
2022-08-26T02:24:24.710Z,34.97
2022-08-26T02:26:55.032Z,34.45
2022-08-26T02:29:29.851Z,35.45
2022-08-26T02:31:58.233Z,35.83
2022-08-26T02:34:32.061Z,41.10
2022-08-26T02:37:00.132Z,41.10
2022-08-26T02:39:27.396Z,43.55
2022-08-26T02:41:55.272Z,43.45
2022-08-26T02:44:22.474Z,38.85
2022-08-26T02:46:49.403Z,40.90
2022-08-26T02:49:16.915Z,43.83
2022-08-26T02:51:44.071Z,40.53
2022-08-26T02:54:11.015Z,37.33
2022-08-26T02:56:37.895Z,39.53
2022-08-26T02:59:04.951Z,48.00
2022-08-26T03:01:33.344Z,42.55
2022-08-26T03:04:00.711Z,41.90
2022-08-26T03:06:27.632Z,43.63
2022-08-26T03:08:55.923Z,50.47
2022-08-26T03:11:23.652Z,53.20
2022-08-26T03:13:52.515Z,62.95
2022-08-26T03:16:20.831Z,50.58
2022-08-26T03:18:52.388Z,57.13
2022-08-26T03:21:19.532Z,54.72
2022-08-26T03:23:46.402Z,59.03
2022-08-26T03:26:14.017Z,57.70
2022-08-26T03:28:59.393Z,52.20
2022-08-26T03:31:26.316Z,56.13
2022-08-26T03:33:55.593Z,65.97
2022-08-26T03:36:25.689Z,61.17
2022-08-26T03:38:52.908Z,61.60
2022-08-26T03:41:20.725Z,62.53
2022-08-26T03:43:48.413Z,61.63
2022-08-26T03:46:16.480Z,62.20
2022-08-26T03:48:43.755Z,73.17
2022-08-26T03:51:18.186Z,77.63
2022-08-26T03:53:45.975Z,68.68
2022-08-26T03:56:12.996Z,71.32
2022-08-26T03:58:42.772Z,71.20
2022-08-26T04:01:13.093Z,75.93
2022-08-26T04:04:01.706Z,70.20
2022-08-26T04:06:35.858Z,70.18
2022-08-26T04:09:05.463Z,68.55
2022-08-26T04:11:34.326Z,72.75
2022-08-26T04:14:04.411Z,78.17
2022-08-26T04:16:31.670Z,74.70
2022-08-26T04:18:59.000Z,66.15
2022-08-26T04:21:26.244Z,68.07
2022-08-26T04:23:53.857Z,74.60
2022-08-26T04:26:21.291Z,75.03
2022-08-26T04:28:49.010Z,66.45
2022-08-26T04:31:17.554Z,74.35
2022-08-26T04:33:46.691Z,66.53
2022-08-26T04:36:13.540Z,62.10
2022-08-26T04:38:40.374Z,65.90
2022-08-26T04:41:15.531Z,58.92
2022-08-26T04:43:44.690Z,53.35
2022-08-26T04:46:13.012Z,62.60
2022-08-26T04:48:41.321Z,53.53
2022-08-26T04:51:10.020Z,53.20
2022-08-26T04:53:37.523Z,58.22
2022-08-26T04:56:05.040Z,53.95
2022-08-26T04:58:32.202Z,46.35
2022-08-26T05:00:59.096Z,46.22
2022-08-26T05:03:30.347Z,46.80
2022-08-26T05:05:57.991Z,45.03
2022-08-26T05:08:24.884Z,41.65
2022-08-26T05:10:54.799Z,42.85
2022-08-26T05:13:23.491Z,44.50
2022-08-26T05:15:50.481Z,39.40
2022-08-26T05:18:19.965Z,44.72
2022-08-26T05:20:49.259Z,40.35
2022-08-26T05:23:16.749Z,43.92
2022-08-26T05:25:45.513Z,49.25
2022-08-26T05:28:13.126Z,42.80
2022-08-26T05:30:40.554Z,41.80
2022-08-26T05:33:09.274Z,47.95
2022-08-26T05:35:38.329Z,40.03
2022-08-26T05:38:11.817Z,42.17
2022-08-26T05:40:41.534Z,39.90
2022-08-26T05:43:10.604Z,38.20
2022-08-26T05:45:45.990Z,39.40
2022-08-26T05:48:14.511Z,37.60
2022-08-26T05:50:43.596Z,38.70
2022-08-26T05:53:11.019Z,33.17
2022-08-26T05:55:48.051Z,42.88
2022-08-26T05:58:15.187Z,39.95
2022-08-26T06:00:45.216Z,36.75
2022-08-26T06:03:12.144Z,34.20
2022-08-26T06:05:39.954Z,33.33
2022-08-26T06:08:21.259Z,32.45
2022-08-26T06:10:53.030Z,36.35
2022-08-26T06:13:22.038Z,31.63
2022-08-26T06:15:50.172Z,29.08
2022-08-26T06:18:19.475Z,28.20
2022-08-26T06:20:53.725Z,26.48
2022-08-26T06:23:43.813Z,32.38
2022-08-26T06:26:11.216Z,29.38
2022-08-26T06:28:38.113Z,24.95
2022-08-26T06:31:06.270Z,29.33
2022-08-26T06:33:33.474Z,26.05
2022-08-26T06:36:01.264Z,22.20
2022-08-26T06:38:28.511Z,25.00
2022-08-26T06:40:55.495Z,25.25
2022-08-26T06:43:23.952Z,30.83
2022-08-26T06:45:51.035Z,28.80
2022-08-26T06:48:19.658Z,36.75
2022-08-26T06:50:46.775Z,31.98
2022-08-26T06:53:17.191Z,32.90
2022-08-26T06:55:46.203Z,32.57
2022-08-26T06:58:14.278Z,32.28
2022-08-26T07:00:41.629Z,37.20
2022-08-26T07:03:14.248Z,25.00
2022-08-26T07:05:41.159Z,26.92
2022-08-26T07:08:08.031Z,27.33
2022-08-26T07:10:35.912Z,27.92
2022-08-26T07:13:02.973Z,25.90
2022-08-26T07:15:33.981Z,28.67
2022-08-26T07:18:01.046Z,27.98
2022-08-26T07:20:27.930Z,24.20
2022-08-26T07:22:54.887Z,22.73
2022-08-26T07:25:21.821Z,26.65
2022-08-26T07:27:54.381Z,23.35
2022-08-26T07:30:21.732Z,21.08
2022-08-26T07:32:48.736Z,22.83
2022-08-26T07:35:15.999Z,27.42
2022-08-26T07:37:43.033Z,26.00
2022-08-26T07:40:10.383Z,23.95
2022-08-26T07:42:37.375Z,25.77
2022-08-26T07:45:05.101Z,22.13
2022-08-26T07:47:32.070Z,22.15
2022-08-26T07:49:59.359Z,25.30
2022-08-26T07:52:27.647Z,25.73
2022-08-26T07:54:56.099Z,25.20
2022-08-26T07:57:24.300Z,23.13
2022-08-26T07:59:51.611Z,24.23
2022-08-26T08:02:21.119Z,20.92
2022-08-26T08:04:48.122Z,27.02
2022-08-26T08:07:15.418Z,24.38
2022-08-26T08:09:42.352Z,23.70
2022-08-26T08:12:14.099Z,20.52
2022-08-26T08:14:42.452Z,19.45
2022-08-26T08:19:39.225Z,25.95
2022-08-26T08:22:11.338Z,32.23
2022-08-26T08:24:45.051Z,24.33
2022-08-26T08:27:12.046Z,25.88
2022-08-26T08:29:39.017Z,20.88
2022-08-26T08:32:11.628Z,19.33
2022-08-26T08:37:10.881Z,22.88
2022-08-26T08:39:38.030Z,23.58
2022-08-26T08:42:23.617Z,21.90
2022-08-26T08:44:52.212Z,21.23
2022-08-26T08:47:43.111Z,17.70
2022-08-26T08:50:33.854Z,22.70
2022-08-26T08:53:32.998Z,21.85
2022-08-26T08:56:10.755Z,20.88
2022-08-26T08:59:01.260Z,21.77
2022-08-26T09:01:42.364Z,16.57
2022-08-26T09:04:30.871Z,18.77
2022-08-26T09:07:00.021Z,17.20
2022-08-26T09:09:37.991Z,17.60
2022-08-26T09:12:06.134Z,18.95
2022-08-26T09:14:33.718Z,20.60
2022-08-26T09:17:09.979Z,16.83
2022-08-26T09:19:50.112Z,18.25
2022-08-26T09:22:31.201Z,17.85
2022-08-26T09:24:58.047Z,17.33
2022-08-26T09:27:45.675Z,17.93
2022-08-26T09:30:25.019Z,17.63
2022-08-26T09:33:10.855Z,15.77
2022-08-26T09:35:44.486Z,18.25
2022-08-26T09:38:28.250Z,16.45
2022-08-26T09:41:06.171Z,18.33
2022-08-26T09:43:34.577Z,17.10
2022-08-26T09:46:23.516Z,13.88
2022-08-26T09:48:51.682Z,16.73
2022-08-26T09:51:30.948Z,15.40
2022-08-26T09:53:59.640Z,17.33
2022-08-26T09:56:32.701Z,14.07
2022-08-26T09:58:59.997Z,15.93
2022-08-26T10:01:36.725Z,14.85
2022-08-26T10:04:10.399Z,13.07
2022-08-26T10:06:54.602Z,15.93
2022-08-26T10:09:21.731Z,16.52
2022-08-26T10:11:52.111Z,17.67
2022-08-26T10:14:49.059Z,14.55
2022-08-26T10:17:23.697Z,15.77
2022-08-26T10:19:57.909Z,17.87
2022-08-26T10:22:52.882Z,17.52
2022-08-26T10:25:35.165Z,15.15
2022-08-26T10:28:09.969Z,15.38
2022-08-26T10:30:46.334Z,16.42
2022-08-26T10:33:15.455Z,21.10
2022-08-26T10:35:48.859Z,12.32
2022-08-26T10:38:18.875Z,15.40
2022-08-26T10:41:09.734Z,13.73
2022-08-26T10:43:43.260Z,13.90
2022-08-26T10:46:14.856Z,15.50
2022-08-26T10:48:46.930Z,16.50
2022-08-26T10:51:15.195Z,16.92
2022-08-26T10:54:04.048Z,11.23
2022-08-26T10:56:52.171Z,13.88
2022-08-26T10:59:51.804Z,14.43
2022-08-26T11:02:36.161Z,17.20
2022-08-26T11:05:10.770Z,12.88
2022-08-26T11:07:46.282Z,11.02
2022-08-26T11:10:19.266Z,13.65
2022-08-26T11:12:49.280Z,13.30
2022-08-26T11:15:24.409Z,16.25
2022-08-26T11:17:51.709Z,15.10
2022-08-26T11:20:34.053Z,17.20
2022-08-26T11:23:13.457Z,15.60
2022-08-26T11:26:02.090Z,15.53
2022-08-26T11:28:38.423Z,11.30
2022-08-26T11:31:10.043Z,10.45
2022-08-26T11:34:03.252Z,14.88
2022-08-26T11:36:42.405Z,14.13
2022-08-26T11:39:56.887Z,12.93
2022-08-26T11:42:43.691Z,16.23
2022-08-26T11:45:29.553Z,12.95
2022-08-26T11:47:56.434Z,10.93
2022-08-26T11:50:26.266Z,13.40
2022-08-26T11:52:55.175Z,11.40
2022-08-26T11:55:23.519Z,12.40
2022-08-26T11:57:53.591Z,15.15
2022-08-26T12:00:36.089Z,13.18
2022-08-26T12:03:08.279Z,16.90
2022-08-26T12:05:36.636Z,23.23
2022-08-26T12:08:09.589Z,15.13
2022-08-26T12:10:37.091Z,17.00
2022-08-26T12:13:04.731Z,14.05
2022-08-26T12:15:32.853Z,17.38
2022-08-26T12:18:17.051Z,12.00
2022-08-26T12:20:48.426Z,9.57
2022-08-26T12:23:41.732Z,10.88
2022-08-26T12:26:12.074Z,9.65
2022-08-26T12:28:43.648Z,10.45
2022-08-26T12:31:10.573Z,10.30
2022-08-26T12:33:37.635Z,11.63
2022-08-26T12:36:05.324Z,9.35
2022-08-26T12:38:33.976Z,10.85
2022-08-26T12:41:00.976Z,10.25
2022-08-26T12:43:54.357Z,13.03
2022-08-26T12:46:25.851Z,9.95
2022-08-26T12:48:52.756Z,11.90
2022-08-26T12:51:25.314Z,9.35
2022-08-26T12:53:52.157Z,12.07
2022-08-26T12:56:40.820Z,9.83
2022-08-26T12:59:23.790Z,6.50
2022-08-26T13:01:51.018Z,9.70
2022-08-26T13:04:43.762Z,10.32
2022-08-26T13:07:28.919Z,9.73
2022-08-26T13:09:57.257Z,14.17
2022-08-26T13:12:28.060Z,10.20
2022-08-26T13:14:54.943Z,9.93
2022-08-26T13:17:21.920Z,11.65
2022-08-26T13:19:48.779Z,12.30
2022-08-26T13:22:15.697Z,15.23
2022-08-26T13:24:43.545Z,11.82
2022-08-26T13:27:12.254Z,12.07
2022-08-26T13:29:39.197Z,11.60
2022-08-26T13:32:06.676Z,13.85
2022-08-26T13:34:34.229Z,10.03
2022-08-26T13:37:01.076Z,11.57
2022-08-26T13:39:27.979Z,10.00
2022-08-26T13:41:54.983Z,8.98
2022-08-26T13:44:21.915Z,11.63
2022-08-26T13:46:48.958Z,12.70
2022-08-26T13:49:15.985Z,11.27
2022-08-26T13:51:42.898Z,12.25
2022-08-26T13:54:09.805Z,9.85
2022-08-26T13:56:37.572Z,13.20
2022-08-26T13:59:04.698Z,13.63
2022-08-26T14:01:32.146Z,14.85
2022-08-26T14:03:59.275Z,16.38
2022-08-26T14:06:26.236Z,11.43
2022-08-26T14:08:53.146Z,9.02
2022-08-26T14:11:20.035Z,9.63
2022-08-26T14:13:46.962Z,12.15
2022-08-26T14:16:22.262Z,14.43
2022-08-26T14:18:51.001Z,8.63
2022-08-26T14:21:18.196Z,12.88
2022-08-26T14:23:45.343Z,9.57
2022-08-26T14:26:27.976Z,10.05
2022-08-26T14:28:55.604Z,8.80
2022-08-26T14:31:23.930Z,9.57
2022-08-26T14:33:50.877Z,11.80
2022-08-26T14:36:32.502Z,10.57
2022-08-26T14:39:10.117Z,11.48
2022-08-26T14:41:43.616Z,12.20
2022-08-26T14:44:11.877Z,10.52
2022-08-26T14:46:48.188Z,10.57
2022-08-26T14:49:15.637Z,11.33
2022-08-26T14:51:42.596Z,11.60
2022-08-26T14:54:12.719Z,10.02
2022-08-26T14:56:43.599Z,10.80
2022-08-26T14:59:10.857Z,10.07
2022-08-26T15:01:37.793Z,9.37
2022-08-26T15:04:04.763Z,8.73
2022-08-26T15:06:32.035Z,8.57
2022-08-26T15:08:59.337Z,13.02
2022-08-26T15:11:27.054Z,11.43
2022-08-26T15:13:53.954Z,11.90
2022-08-26T15:16:21.628Z,9.85
2022-08-26T15:18:49.437Z,13.75
2022-08-26T15:21:16.332Z,11.88
2022-08-26T15:23:43.320Z,9.93
2022-08-26T15:26:15.155Z,11.57
2022-08-26T15:28:42.135Z,11.18
2022-08-26T15:31:09.456Z,12.48
2022-08-26T15:33:36.616Z,9.40
2022-08-26T15:36:04.496Z,8.95
2022-08-26T15:38:32.536Z,10.93
2022-08-26T15:41:02.958Z,9.90
2022-08-26T15:43:30.157Z,8.55
2022-08-26T15:45:57.198Z,10.23
2022-08-26T15:48:24.778Z,10.68
2022-08-26T15:50:54.201Z,10.37
2022-08-26T15:53:22.116Z,10.10
2022-08-26T15:55:49.061Z,12.30
2022-08-26T15:58:17.060Z,13.75
2022-08-26T16:00:44.951Z,12.57
2022-08-26T16:03:11.969Z,10.43
2022-08-26T16:05:39.606Z,11.10
2022-08-26T16:08:07.000Z,12.20
2022-08-26T16:10:34.741Z,11.45
2022-08-26T16:13:01.891Z,13.90
2022-08-26T16:15:28.865Z,10.90
2022-08-26T16:17:58.625Z,13.52
2022-08-26T16:20:26.259Z,14.57
2022-08-26T16:22:53.836Z,12.65
2022-08-26T16:25:20.818Z,10.32
2022-08-26T16:27:48.020Z,16.17
2022-08-26T16:30:15.417Z,12.85
2022-08-26T16:32:42.271Z,11.38
2022-08-26T16:35:09.197Z,11.82
2022-08-26T16:37:37.770Z,11.40
2022-08-26T16:40:07.535Z,11.97
2022-08-26T16:42:34.495Z,11.18
2022-08-26T16:45:01.541Z,14.13
2022-08-26T16:47:28.436Z,11.45
2022-08-26T16:49:55.340Z,14.10
2022-08-26T16:52:22.423Z,14.30
2022-08-26T16:54:52.556Z,12.15
2022-08-26T16:57:19.519Z,14.30
2022-08-26T16:59:46.382Z,15.48
2022-08-26T17:02:13.417Z,15.00
2022-08-26T17:04:41.315Z,16.00
2022-08-26T17:07:13.079Z,13.93
2022-08-26T17:09:41.478Z,15.20
2022-08-26T17:12:08.565Z,16.23
2022-08-26T17:14:35.505Z,16.10
2022-08-26T17:17:03.277Z,12.90
2022-08-26T17:19:30.155Z,15.65
2022-08-26T17:22:10.316Z,15.02
2022-08-26T17:24:37.504Z,19.33
2022-08-26T17:27:04.592Z,15.98
2022-08-26T17:29:31.471Z,14.70
2022-08-26T17:31:58.288Z,18.20
2022-08-26T17:34:25.190Z,16.25
2022-08-26T17:36:52.016Z,15.57
2022-08-26T17:39:18.986Z,18.77
2022-08-26T17:41:59.273Z,15.63
2022-08-26T17:44:26.677Z,16.90
2022-08-26T17:46:53.596Z,16.90
2022-08-26T17:49:20.468Z,16.05
2022-08-26T17:51:48.210Z,14.40
2022-08-26T17:54:15.414Z,17.67
2022-08-26T17:56:42.249Z,15.35
2022-08-26T17:59:09.130Z,16.15
2022-08-26T18:01:36.488Z,20.10
2022-08-26T18:04:03.900Z,16.58
2022-08-26T18:06:31.327Z,18.27
2022-08-26T18:08:58.813Z,19.45
2022-08-26T18:11:25.787Z,14.20
2022-08-26T18:13:53.251Z,19.15
2022-08-26T18:16:20.185Z,18.92
2022-08-26T18:18:47.730Z,19.57
2022-08-26T18:21:17.032Z,16.70
2022-08-26T18:23:44.832Z,16.92
2022-08-26T18:26:26.334Z,18.77
2022-08-26T18:28:53.392Z,22.25
2022-08-26T18:31:20.422Z,18.63
2022-08-26T18:33:47.432Z,19.02
2022-08-26T18:36:22.431Z,19.23
2022-08-26T18:38:50.754Z,22.15
2022-08-26T18:41:20.838Z,19.17
2022-08-26T18:43:48.841Z,17.90
2022-08-26T18:46:15.793Z,21.35
2022-08-26T18:48:42.787Z,20.77
2022-08-26T18:51:15.976Z,21.42
2022-08-26T18:53:42.832Z,23.90
2022-08-26T18:56:09.637Z,20.03
2022-08-26T18:58:36.512Z,16.60
2022-08-26T19:01:03.565Z,18.33
2022-08-26T19:03:30.491Z,21.65
2022-08-26T19:05:57.331Z,22.40
2022-08-26T19:08:24.390Z,22.60
2022-08-26T19:10:51.233Z,27.40
2022-08-26T19:13:20.721Z,24.25
2022-08-26T19:15:47.754Z,27.77
2022-08-26T19:18:14.834Z,22.08
2022-08-26T19:20:46.364Z,22.03
2022-08-26T19:23:30.553Z,24.67
2022-08-26T19:25:58.111Z,18.52
2022-08-26T19:28:24.981Z,18.58
2022-08-26T19:30:53.368Z,21.63
2022-08-26T19:33:20.499Z,22.90
2022-08-26T19:35:47.518Z,20.08
2022-08-26T19:38:15.421Z,23.40
2022-08-26T19:40:42.697Z,30.23
2022-08-26T19:43:10.376Z,22.42
2022-08-26T19:45:38.968Z,25.77
2022-08-26T19:48:06.135Z,21.25
2022-08-26T19:50:34.254Z,27.85
2022-08-26T19:53:01.229Z,23.00
2022-08-26T19:55:28.201Z,25.10
2022-08-26T19:57:55.064Z,25.70
2022-08-26T20:00:24.210Z,23.50
2022-08-26T20:02:51.955Z,28.45
2022-08-26T20:05:20.626Z,29.98
2022-08-26T20:07:48.181Z,23.38
2022-08-26T20:10:16.105Z,23.60
2022-08-26T20:12:43.188Z,27.25
2022-08-26T20:15:11.245Z,20.42
2022-08-26T20:17:38.124Z,24.10
2022-08-26T20:20:32.783Z,29.13
2022-08-26T20:23:01.488Z,20.87
2022-08-26T20:25:28.534Z,23.77
2022-08-26T20:27:55.433Z,26.17
2022-08-26T20:30:22.436Z,23.40
2022-08-26T20:32:49.275Z,26.55
2022-08-26T20:35:16.187Z,25.33
2022-08-26T20:37:43.189Z,26.88
2022-08-26T20:40:11.246Z,25.95
2022-08-26T20:42:38.187Z,22.83
2022-08-26T20:45:06.744Z,22.75
2022-08-26T20:47:33.833Z,19.87
2022-08-26T20:50:00.755Z,23.83
2022-08-26T20:52:27.976Z,20.38
2022-08-26T20:54:54.828Z,23.48
2022-08-26T20:57:22.393Z,26.23
2022-08-26T20:59:49.207Z,26.67
2022-08-26T21:02:16.244Z,22.23
2022-08-26T21:04:43.160Z,22.58
2022-08-26T21:07:10.084Z,23.25
2022-08-26T21:09:36.919Z,24.80
2022-08-26T21:12:05.345Z,24.17
2022-08-26T21:14:32.257Z,23.88
2022-08-26T21:16:59.584Z,26.58
2022-08-26T21:19:26.830Z,25.88
2022-08-26T21:21:53.704Z,23.70
2022-08-26T21:24:20.616Z,25.10
2022-08-26T21:26:47.512Z,24.48
2022-08-26T21:29:14.485Z,21.23
2022-08-26T21:31:46.173Z,22.40
2022-08-26T21:34:14.908Z,20.30
2022-08-26T21:36:42.016Z,21.20
2022-08-26T21:39:11.798Z,18.50
2022-08-26T21:41:39.736Z,18.05
2022-08-26T21:44:06.800Z,17.73
2022-08-26T21:46:36.406Z,17.90
2022-08-26T21:49:04.744Z,21.17
2022-08-26T21:51:34.447Z,17.08
2022-08-26T21:54:01.894Z,16.73
2022-08-26T21:56:31.589Z,18.85
2022-08-26T21:58:58.847Z,18.90
2022-08-26T22:01:27.291Z,20.40
2022-08-26T22:03:54.599Z,22.08
2022-08-26T22:06:22.933Z,18.17
2022-08-26T22:08:50.097Z,21.10
2022-08-26T22:11:17.566Z,20.27
2022-08-26T22:13:45.626Z,21.03
2022-08-26T22:16:13.328Z,21.63
2022-08-26T22:18:45.356Z,22.90
2022-08-26T22:21:18.414Z,21.40
2022-08-26T22:23:45.356Z,23.27
2022-08-26T22:26:13.178Z,23.90
2022-08-26T22:28:40.087Z,21.30
2022-08-26T22:31:11.379Z,21.17
2022-08-26T22:33:42.539Z,21.90
2022-08-26T22:36:19.527Z,21.00
2022-08-26T22:38:46.538Z,23.17
2022-08-26T22:41:13.444Z,24.52
2022-08-26T22:43:40.448Z,22.23
2022-08-26T22:46:10.846Z,19.45
2022-08-26T22:48:38.329Z,25.15
2022-08-26T22:51:05.372Z,21.97
2022-08-26T22:53:32.728Z,20.23
2022-08-26T22:56:03.343Z,19.67
2022-08-26T22:58:30.901Z,19.45
2022-08-26T23:00:58.154Z,23.92
2022-08-26T23:03:26.624Z,21.53
2022-08-26T23:05:54.166Z,21.77
2022-08-26T23:08:21.156Z,28.02
2022-08-26T23:10:48.254Z,24.95
2022-08-26T23:13:15.506Z,20.13
2022-08-26T23:15:42.766Z,22.13
2022-08-26T23:18:09.950Z,20.55
2022-08-26T23:20:37.189Z,27.50
2022-08-26T23:23:04.243Z,22.30
2022-08-26T23:25:32.481Z,23.45
2022-08-26T23:28:00.445Z,27.07
2022-08-26T23:30:28.309Z,31.58
2022-08-26T23:32:55.206Z,28.10
2022-08-26T23:35:22.169Z,27.25
2022-08-26T23:37:52.514Z,28.77
2022-08-26T23:40:26.141Z,30.63
2022-08-26T23:42:54.290Z,29.65
2022-08-26T23:45:21.609Z,32.88
2022-08-26T23:47:50.665Z,29.65
2022-08-26T23:50:23.673Z,28.23
2022-08-26T23:53:08.753Z,27.47
2022-08-26T23:55:36.531Z,27.10
2022-08-26T23:58:03.547Z,27.10
